You are not logged in, Click here to log in
濟州國際機場 / RKPC 韓國濟州島濟州市
ICAO: RKPC Country: 韓國濟州島濟州市
Latitude: 33.5104 Longitude: 126.491
Total Arrivals: 31 Total Departures: 31
Latest Arrival: KE6866 (RCTP-RKPC)Lun. Wang Latest Departure: AE140 (RKPC-RJFF)Lun. Wang
Scenery:
METAR : RKPC 110400Z 32005KT 280V350 8000 FEW015 SCT030 BKN180 23/21 Q1007 NOSIG

濟州國際機場

You are accessing this site from IP address 34.229.119.29. Virtual Airline. CMS by phpVMS.Website designed by Zumeweb and edited by Theo Bearman.
There is 1 User(s) Online: | Lun Wang | and 33 Guest(s) Online.
All information on this site is for fight simulation purposes only. This site is for flight logging for pilots of Virtual Airline&模擬飛行論壇 FlySim only.